sensor_id;sensor_type;location;lat;lon;timestamp;temperature;humidity
58582;DHT22;44361;51.476;5.700;2022-09-09T00:04:37;14.00;99.90
58582;DHT22;44361;51.476;5.700;2022-09-09T00:07:15;14.00;99.90
58582;DHT22;44361;51.476;5.700;2022-09-09T00:09:50;14.00;99.90
58582;DHT22;44361;51.476;5.700;2022-09-09T00:12:39;14.10;99.90
58582;DHT22;44361;51.476;5.700;2022-09-09T00:15:12;14.00;99.90
58582;DHT22;44361;51.476;5.700;2022-09-09T00:17:47;14.00;99.90
58582;DHT22;44361;51.476;5.700;2022-09-09T00:20:35;13.90;99.90
58582;DHT22;44361;51.476;5.700;2022-09-09T00:23:29;13.90;99.90
58582;DHT22;44361;51.476;5.700;2022-09-09T00:28:52;13.80;99.90
58582;DHT22;44361;51.476;5.700;2022-09-09T00:31:24;13.80;99.90
58582;DHT22;44361;51.476;5.700;2022-09-09T00:33:50;13.70;99.90
58582;DHT22;44361;51.476;5.700;2022-09-09T00:36:21;13.70;99.90
58582;DHT22;44361;51.476;5.700;2022-09-09T00:39:02;13.70;99.90
58582;DHT22;44361;51.476;5.700;2022-09-09T00:44:32;13.70;99.90
58582;DHT22;44361;51.476;5.700;2022-09-09T00:50:10;13.70;99.90
58582;DHT22;44361;51.476;5.700;2022-09-09T00:55:41;13.80;99.90
58582;DHT22;44361;51.476;5.700;2022-09-09T00:58:10;13.80;99.90
58582;DHT22;44361;51.476;5.700;2022-09-09T01:00:45;13.70;99.90
58582;DHT22;44361;51.476;5.700;2022-09-09T01:03:19;13.80;99.90
58582;DHT22;44361;51.476;5.700;2022-09-09T01:11:05;13.70;99.90
58582;DHT22;44361;51.476;5.700;2022-09-09T01:13:34;13.80;99.90
58582;DHT22;44361;51.476;5.700;2022-09-09T01:16:03;13.80;99.90
58582;DHT22;44361;51.476;5.700;2022-09-09T01:18:33;13.70;99.90
58582;DHT22;44361;51.476;5.700;2022-09-09T01:21:04;13.70;99.90
58582;DHT22;44361;51.476;5.700;2022-09-09T01:23:51;13.70;99.90
58582;DHT22;44361;51.476;5.700;2022-09-09T01:26:42;13.70;99.90
58582;DHT22;44361;51.476;5.700;2022-09-09T01:29:10;13.60;99.90
58582;DHT22;44361;51.476;5.700;2022-09-09T01:31:39;13.60;99.90
58582;DHT22;44361;51.476;5.700;2022-09-09T01:34:14;13.50;99.90
58582;DHT22;44361;51.476;5.700;2022-09-09T01:39:36;13.50;99.90
58582;DHT22;44361;51.476;5.700;2022-09-09T01:42:04;13.50;99.90
58582;DHT22;44361;51.476;5.700;2022-09-09T01:44:30;13.40;99.90
58582;DHT22;44361;51.476;5.700;2022-09-09T01:46:57;13.40;99.90
58582;DHT22;44361;51.476;5.700;2022-09-09T01:49:23;13.40;99.90
58582;DHT22;44361;51.476;5.700;2022-09-09T01:51:53;13.40;99.90
58582;DHT22;44361;51.476;5.700;2022-09-09T01:54:20;13.40;99.90
58582;DHT22;44361;51.476;5.700;2022-09-09T02:02:00;13.30;99.90
58582;DHT22;44361;51.476;5.700;2022-09-09T02:04:45;13.40;99.90
58582;DHT22;44361;51.476;5.700;2022-09-09T02:09:56;13.40;99.90
58582;DHT22;44361;51.476;5.700;2022-09-09T02:12:24;13.30;99.90
58582;DHT22;44361;51.476;5.700;2022-09-09T02:14:55;13.30;99.90
58582;DHT22;44361;51.476;5.700;2022-09-09T02:17:27;13.30;99.90
58582;DHT22;44361;51.476;5.700;2022-09-09T02:20:01;13.30;99.90
58582;DHT22;44361;51.476;5.700;2022-09-09T02:22:28;13.30;99.90
58582;DHT22;44361;51.476;5.700;2022-09-09T02:24:57;13.30;99.90
58582;DHT22;44361;51.476;5.700;2022-09-09T02:27:24;13.30;99.90
58582;DHT22;44361;51.476;5.700;2022-09-09T02:29:51;13.30;99.90
58582;DHT22;44361;51.476;5.700;2022-09-09T02:32:21;13.30;99.90
58582;DHT22;44361;51.476;5.700;2022-09-09T02:34:54;13.30;99.90
58582;DHT22;44361;51.476;5.700;2022-09-09T02:37:23;13.30;99.90
58582;DHT22;44361;51.476;5.700;2022-09-09T02:39:50;13.20;99.90
58582;DHT22;44361;51.476;5.700;2022-09-09T02:42:16;13.30;99.90
58582;DHT22;44361;51.476;5.700;2022-09-09T02:44:41;13.30;99.90
58582;DHT22;44361;51.476;5.700;2022-09-09T02:47:19;13.30;99.90
58582;DHT22;44361;51.476;5.700;2022-09-09T02:50:16;13.30;99.90
58582;DHT22;44361;51.476;5.700;2022-09-09T02:55:45;13.40;99.90
58582;DHT22;44361;51.476;5.700;2022-09-09T02:58:15;13.40;99.90
58582;DHT22;44361;51.476;5.700;2022-09-09T03:00:46;13.40;99.90
58582;DHT22;44361;51.476;5.700;2022-09-09T03:03:13;13.40;99.90
58582;DHT22;44361;51.476;5.700;2022-09-09T03:05:39;13.40;99.90
58582;DHT22;44361;51.476;5.700;2022-09-09T03:08:04;13.40;99.90
58582;DHT22;44361;51.476;5.700;2022-09-09T03:10:31;13.40;99.90
58582;DHT22;44361;51.476;5.700;2022-09-09T03:12:57;13.40;99.90
58582;DHT22;44361;51.476;5.700;2022-09-09T03:15:23;13.40;99.90
58582;DHT22;44361;51.476;5.700;2022-09-09T03:17:48;13.50;99.90
58582;DHT22;44361;51.476;5.700;2022-09-09T03:20:14;13.50;99.90
58582;DHT22;44361;51.476;5.700;2022-09-09T03:22:40;13.60;99.90
58582;DHT22;44361;51.476;5.700;2022-09-09T03:25:06;13.70;99.90
58582;DHT22;44361;51.476;5.700;2022-09-09T03:27:32;13.70;99.90
58582;DHT22;44361;51.476;5.700;2022-09-09T03:29:58;13.70;99.90
58582;DHT22;44361;51.476;5.700;2022-09-09T03:32:23;13.80;99.90
58582;DHT22;44361;51.476;5.700;2022-09-09T03:34:51;13.90;99.90
58582;DHT22;44361;51.476;5.700;2022-09-09T03:37:17;13.90;99.90
58582;DHT22;44361;51.476;5.700;2022-09-09T03:39:43;13.90;99.90
58582;DHT22;44361;51.476;5.700;2022-09-09T03:42:09;13.90;99.90
58582;DHT22;44361;51.476;5.700;2022-09-09T03:44:39;13.90;99.90
58582;DHT22;44361;51.476;5.700;2022-09-09T03:47:05;14.00;99.90
58582;DHT22;44361;51.476;5.700;2022-09-09T03:49:31;14.00;99.90
58582;DHT22;44361;51.476;5.700;2022-09-09T03:51:57;14.00;99.90
58582;DHT22;44361;51.476;5.700;2022-09-09T03:54:25;14.00;99.90
58582;DHT22;44361;51.476;5.700;2022-09-09T03:56:50;14.10;99.90
58582;DHT22;44361;51.476;5.700;2022-09-09T03:59:16;14.10;99.90
58582;DHT22;44361;51.476;5.700;2022-09-09T04:01:42;14.10;99.90
58582;DHT22;44361;51.476;5.700;2022-09-09T04:04:08;14.10;99.90
58582;DHT22;44361;51.476;5.700;2022-09-09T04:06:34;14.10;99.90
58582;DHT22;44361;51.476;5.700;2022-09-09T04:09:00;14.20;99.90
58582;DHT22;44361;51.476;5.700;2022-09-09T04:11:28;14.20;99.90
58582;DHT22;44361;51.476;5.700;2022-09-09T04:13:53;14.20;99.90
58582;DHT22;44361;51.476;5.700;2022-09-09T04:16:19;14.20;99.90
58582;DHT22;44361;51.476;5.700;2022-09-09T04:18:45;14.20;99.90
58582;DHT22;44361;51.476;5.700;2022-09-09T04:21:11;14.20;99.90
58582;DHT22;44361;51.476;5.700;2022-09-09T04:23:37;14.20;99.90
58582;DHT22;44361;51.476;5.700;2022-09-09T04:26:03;14.20;99.90
58582;DHT22;44361;51.476;5.700;2022-09-09T04:28:31;14.20;99.90
58582;DHT22;44361;51.476;5.700;2022-09-09T04:31:03;14.30;99.90
58582;DHT22;44361;51.476;5.700;2022-09-09T04:33:28;14.20;99.90
58582;DHT22;44361;51.476;5.700;2022-09-09T04:35:54;14.20;99.90
58582;DHT22;44361;51.476;5.700;2022-09-09T04:38:20;14.20;99.90
58582;DHT22;44361;51.476;5.700;2022-09-09T04:40:48;14.30;99.90
58582;DHT22;44361;51.476;5.700;2022-09-09T04:43:15;14.30;99.90
58582;DHT22;44361;51.476;5.700;2022-09-09T04:45:41;14.30;99.90
58582;DHT22;44361;51.476;5.700;2022-09-09T04:48:07;14.30;99.90
58582;DHT22;44361;51.476;5.700;2022-09-09T04:50:33;14.30;99.90
58582;DHT22;44361;51.476;5.700;2022-09-09T04:53:01;14.30;99.90
58582;DHT22;44361;51.476;5.700;2022-09-09T04:55:26;14.40;99.90
58582;DHT22;44361;51.476;5.700;2022-09-09T04:57:52;14.40;99.90
58582;DHT22;44361;51.476;5.700;2022-09-09T05:00:17;14.30;99.90
58582;DHT22;44361;51.476;5.700;2022-09-09T05:02:44;14.30;99.90
58582;DHT22;44361;51.476;5.700;2022-09-09T05:05:09;14.20;99.90
58582;DHT22;44361;51.476;5.700;2022-09-09T05:07:36;14.20;99.90
58582;DHT22;44361;51.476;5.700;2022-09-09T05:10:02;14.20;99.90
58582;DHT22;44361;51.476;5.700;2022-09-09T05:12:30;14.10;99.90
58582;DHT22;44361;51.476;5.700;2022-09-09T05:14:56;14.10;99.90
58582;DHT22;44361;51.476;5.700;2022-09-09T05:17:22;14.10;99.90
58582;DHT22;44361;51.476;5.700;2022-09-09T05:19:47;14.20;99.90
58582;DHT22;44361;51.476;5.700;2022-09-09T05:22:19;14.20;99.90
58582;DHT22;44361;51.476;5.700;2022-09-09T05:24:45;14.20;99.90
58582;DHT22;44361;51.476;5.700;2022-09-09T05:27:11;14.20;99.90
58582;DHT22;44361;51.476;5.700;2022-09-09T05:29:37;14.20;99.90
58582;DHT22;44361;51.476;5.700;2022-09-09T05:32:03;14.20;99.90
58582;DHT22;44361;51.476;5.700;2022-09-09T05:34:29;14.20;99.90
58582;DHT22;44361;51.476;5.700;2022-09-09T05:36:55;14.20;99.90
58582;DHT22;44361;51.476;5.700;2022-09-09T05:39:20;14.20;99.90
58582;DHT22;44361;51.476;5.700;2022-09-09T05:41:46;14.20;99.90
58582;DHT22;44361;51.476;5.700;2022-09-09T05:44:12;14.20;99.90
58582;DHT22;44361;51.476;5.700;2022-09-09T05:46:38;14.30;99.90
58582;DHT22;44361;51.476;5.700;2022-09-09T05:49:04;14.30;99.90
58582;DHT22;44361;51.476;5.700;2022-09-09T05:51:31;14.30;99.90
58582;DHT22;44361;51.476;5.700;2022-09-09T05:53:57;14.30;99.90
58582;DHT22;44361;51.476;5.700;2022-09-09T05:56:27;14.40;99.90
58582;DHT22;44361;51.476;5.700;2022-09-09T05:58:54;14.40;99.90
58582;DHT22;44361;51.476;5.700;2022-09-09T06:01:23;14.50;99.90
58582;DHT22;44361;51.476;5.700;2022-09-09T06:03:50;14.60;99.90
58582;DHT22;44361;51.476;5.700;2022-09-09T06:06:24;14.70;99.90
58582;DHT22;44361;51.476;5.700;2022-09-09T06:08:52;14.80;99.90
58582;DHT22;44361;51.476;5.700;2022-09-09T06:11:20;15.00;99.90
58582;DHT22;44361;51.476;5.700;2022-09-09T06:13:47;15.00;99.90
58582;DHT22;44361;51.476;5.700;2022-09-09T06:16:17;15.10;99.90
58582;DHT22;44361;51.476;5.700;2022-09-09T06:18:43;15.20;99.90
58582;DHT22;44361;51.476;5.700;2022-09-09T06:21:15;15.30;99.90
58582;DHT22;44361;51.476;5.700;2022-09-09T06:23:41;15.40;99.90
58582;DHT22;44361;51.476;5.700;2022-09-09T06:26:20;15.50;99.90
58582;DHT22;44361;51.476;5.700;2022-09-09T06:28:47;15.50;99.90
58582;DHT22;44361;51.476;5.700;2022-09-09T06:31:15;15.50;99.90
58582;DHT22;44361;51.476;5.700;2022-09-09T06:33:42;15.50;99.90
58582;DHT22;44361;51.476;5.700;2022-09-09T06:36:39;15.60;99.90
58582;DHT22;44361;51.476;5.700;2022-09-09T06:39:05;15.70;99.90
58582;DHT22;44361;51.476;5.700;2022-09-09T06:41:32;15.70;99.90
58582;DHT22;44361;51.476;5.700;2022-09-09T06:43:58;15.60;99.90
58582;DHT22;44361;51.476;5.700;2022-09-09T06:46:27;15.60;99.90
58582;DHT22;44361;51.476;5.700;2022-09-09T06:48:53;15.60;99.90
58582;DHT22;44361;51.476;5.700;2022-09-09T06:51:30;15.60;99.90
58582;DHT22;44361;51.476;5.700;2022-09-09T06:53:58;15.70;99.90
58582;DHT22;44361;51.476;5.700;2022-09-09T06:58:53;16.00;99.90
58582;DHT22;44361;51.476;5.700;2022-09-09T07:01:24;16.00;99.90
58582;DHT22;44361;51.476;5.700;2022-09-09T07:03:52;15.90;99.90
58582;DHT22;44361;51.476;5.700;2022-09-09T07:06:24;15.80;99.90
58582;DHT22;44361;51.476;5.700;2022-09-09T07:08:51;15.70;99.90
58582;DHT22;44361;51.476;5.700;2022-09-09T07:11:19;15.70;99.90
58582;DHT22;44361;51.476;5.700;2022-09-09T07:13:45;15.80;99.90
58582;DHT22;44361;51.476;5.700;2022-09-09T07:16:15;16.00;99.90
58582;DHT22;44361;51.476;5.700;2022-09-09T07:18:41;16.20;99.90
58582;DHT22;44361;51.476;5.700;2022-09-09T07:21:08;16.30;99.90
58582;DHT22;44361;51.476;5.700;2022-09-09T07:23:34;16.40;99.90
58582;DHT22;44361;51.476;5.700;2022-09-09T07:26:01;16.50;99.90
58582;DHT22;44361;51.476;5.700;2022-09-09T07:28:27;16.60;99.90
58582;DHT22;44361;51.476;5.700;2022-09-09T07:31:01;16.70;99.90
58582;DHT22;44361;51.476;5.700;2022-09-09T07:33:34;16.80;99.90
58582;DHT22;44361;51.476;5.700;2022-09-09T07:36:27;17.00;99.90
58582;DHT22;44361;51.476;5.700;2022-09-09T07:38:55;17.10;99.90
58582;DHT22;44361;51.476;5.700;2022-09-09T07:41:26;17.10;99.90
58582;DHT22;44361;51.476;5.700;2022-09-09T07:43:53;17.20;99.90
58582;DHT22;44361;51.476;5.700;2022-09-09T07:46:24;17.30;99.90
58582;DHT22;44361;51.476;5.700;2022-09-09T07:48:53;17.60;99.90
58582;DHT22;44361;51.476;5.700;2022-09-09T07:51:21;17.70;99.90
58582;DHT22;44361;51.476;5.700;2022-09-09T07:53:48;17.70;99.90
58582;DHT22;44361;51.476;5.700;2022-09-09T07:56:17;17.80;99.90
58582;DHT22;44361;51.476;5.700;2022-09-09T07:58:46;17.70;99.90
58582;DHT22;44361;51.476;5.700;2022-09-09T08:01:15;17.70;99.90
58582;DHT22;44361;51.476;5.700;2022-09-09T08:03:42;17.70;99.90
58582;DHT22;44361;51.476;5.700;2022-09-09T08:06:09;17.80;99.90
58582;DHT22;44361;51.476;5.700;2022-09-09T08:08:36;17.90;99.90
58582;DHT22;44361;51.476;5.700;2022-09-09T08:11:13;18.10;99.90
58582;DHT22;44361;51.476;5.700;2022-09-09T08:13:41;18.20;99.90
58582;DHT22;44361;51.476;5.700;2022-09-09T08:16:16;18.30;99.90
58582;DHT22;44361;51.476;5.700;2022-09-09T08:18:42;18.50;99.90
58582;DHT22;44361;51.476;5.700;2022-09-09T08:21:17;18.60;99.90
58582;DHT22;44361;51.476;5.700;2022-09-09T08:23:43;18.50;99.90
58582;DHT22;44361;51.476;5.700;2022-09-09T08:26:25;18.50;99.90
58582;DHT22;44361;51.476;5.700;2022-09-09T08:28:53;18.70;99.90
58582;DHT22;44361;51.476;5.700;2022-09-09T08:31:21;18.90;99.90
58582;DHT22;44361;51.476;5.700;2022-09-09T08:33:48;18.90;99.90
58582;DHT22;44361;51.476;5.700;2022-09-09T08:36:19;18.80;99.90
58582;DHT22;44361;51.476;5.700;2022-09-09T08:38:50;18.60;99.90
58582;DHT22;44361;51.476;5.700;2022-09-09T08:43:51;18.20;99.90
58582;DHT22;44361;51.476;5.700;2022-09-09T08:49:47;18.50;99.90
58582;DHT22;44361;51.476;5.700;2022-09-09T08:55:23;18.80;99.90
58582;DHT22;44361;51.476;5.700;2022-09-09T08:57:52;18.90;99.90
58582;DHT22;44361;51.476;5.700;2022-09-09T09:00:20;19.10;99.90
58582;DHT22;44361;51.476;5.700;2022-09-09T09:03:03;19.30;99.90
58582;DHT22;44361;51.476;5.700;2022-09-09T09:05:47;19.20;99.90
58582;DHT22;44361;51.476;5.700;2022-09-09T09:08:47;18.90;99.90
58582;DHT22;44361;51.476;5.700;2022-09-09T09:11:16;18.80;99.90
58582;DHT22;44361;51.476;5.700;2022-09-09T09:14:03;18.80;99.90
58582;DHT22;44361;51.476;5.700;2022-09-09T09:16:58;18.70;99.90
58582;DHT22;44361;51.476;5.700;2022-09-09T09:19:25;18.70;99.90
58582;DHT22;44361;51.476;5.700;2022-09-09T09:22:17;18.40;99.90
58582;DHT22;44361;51.476;5.700;2022-09-09T09:27:25;18.00;99.90
58582;DHT22;44361;51.476;5.700;2022-09-09T09:29:54;18.10;99.90
58582;DHT22;44361;51.476;5.700;2022-09-09T09:32:22;18.10;99.90
58582;DHT22;44361;51.476;5.700;2022-09-09T09:34:58;18.10;99.90
58582;DHT22;44361;51.476;5.700;2022-09-09T09:37:30;18.20;99.90
58582;DHT22;44361;51.476;5.700;2022-09-09T09:40:07;18.40;99.90
58582;DHT22;44361;51.476;5.700;2022-09-09T09:42:32;18.40;99.90
58582;DHT22;44361;51.476;5.700;2022-09-09T09:45:18;18.40;99.90
58582;DHT22;44361;51.476;5.700;2022-09-09T09:48:04;18.30;99.90
58582;DHT22;44361;51.476;5.700;2022-09-09T09:50:31;18.20;99.90
58582;DHT22;44361;51.476;5.700;2022-09-09T09:53:00;18.10;99.90
58582;DHT22;44361;51.476;5.700;2022-09-09T09:55:26;18.10;99.90
58582;DHT22;44361;51.476;5.700;2022-09-09T09:58:01;18.10;99.90
58582;DHT22;44361;51.476;5.700;2022-09-09T10:00:27;18.00;99.90
58582;DHT22;44361;51.476;5.700;2022-09-09T10:02:52;18.10;99.90
58582;DHT22;44361;51.476;5.700;2022-09-09T10:05:25;18.00;99.90
58582;DHT22;44361;51.476;5.700;2022-09-09T10:08:21;18.10;99.90
58582;DHT22;44361;51.476;5.700;2022-09-09T10:11:02;18.30;99.90
58582;DHT22;44361;51.476;5.700;2022-09-09T10:13:43;18.50;99.90
58582;DHT22;44361;51.476;5.700;2022-09-09T10:18:59;19.20;99.90
58582;DHT22;44361;51.476;5.700;2022-09-09T10:27:32;18.90;99.90
58582;DHT22;44361;51.476;5.700;2022-09-09T10:30:23;18.80;99.90
58582;DHT22;44361;51.476;5.700;2022-09-09T10:35:52;18.80;99.90
58582;DHT22;44361;51.476;5.700;2022-09-09T10:38:39;18.80;99.90
58582;DHT22;44361;51.476;5.700;2022-09-09T10:44:03;18.70;99.90
58582;DHT22;44361;51.476;5.700;2022-09-09T10:51:57;17.40;99.90
58582;DHT22;44361;51.476;5.700;2022-09-09T10:57:29;17.00;99.90
58582;DHT22;44361;51.476;5.700;2022-09-09T10:59:59;16.90;99.90
58582;DHT22;44361;51.476;5.700;2022-09-09T11:02:31;16.80;99.90
58582;DHT22;44361;51.476;5.700;2022-09-09T11:05:13;16.70;99.90
58582;DHT22;44361;51.476;5.700;2022-09-09T11:07:47;16.50;99.90
58582;DHT22;44361;51.476;5.700;2022-09-09T11:10:44;16.50;99.90
58582;DHT22;44361;51.476;5.700;2022-09-09T11:13:26;16.40;99.90
58582;DHT22;44361;51.476;5.700;2022-09-09T11:21:48;16.20;99.90
58582;DHT22;44361;51.476;5.700;2022-09-09T11:24:35;16.20;99.90
58582;DHT22;44361;51.476;5.700;2022-09-09T11:27:03;16.30;99.90
58582;DHT22;44361;51.476;5.700;2022-09-09T11:32:43;16.40;99.90
58582;DHT22;44361;51.476;5.700;2022-09-09T11:38:15;17.00;99.90
58582;DHT22;44361;51.476;5.700;2022-09-09T11:40:43;17.30;99.90
58582;DHT22;44361;51.476;5.700;2022-09-09T11:43:15;17.70;99.90
58582;DHT22;44361;51.476;5.700;2022-09-09T11:45:53;17.90;99.90
58582;DHT22;44361;51.476;5.700;2022-09-09T11:48:30;18.00;99.90
58582;DHT22;44361;51.476;5.700;2022-09-09T11:53:28;18.30;99.90
58582;DHT22;44361;51.476;5.700;2022-09-09T11:56:09;18.40;99.90
58582;DHT22;44361;51.476;5.700;2022-09-09T11:58:43;18.40;99.90
58582;DHT22;44361;51.476;5.700;2022-09-09T12:01:28;18.40;99.90
58582;DHT22;44361;51.476;5.700;2022-09-09T12:04:15;18.20;99.90
58582;DHT22;44361;51.476;5.700;2022-09-09T12:06:50;18.30;99.90
58582;DHT22;44361;51.476;5.700;2022-09-09T12:09:18;18.20;99.90
58582;DHT22;44361;51.476;5.700;2022-09-09T12:11:44;18.30;99.90
58582;DHT22;44361;51.476;5.700;2022-09-09T12:19:40;18.40;99.90
58582;DHT22;44361;51.476;5.700;2022-09-09T12:27:41;18.60;99.90
58582;DHT22;44361;51.476;5.700;2022-09-09T12:30:12;18.60;99.90
58582;DHT22;44361;51.476;5.700;2022-09-09T12:32:40;18.90;99.90
58582;DHT22;44361;51.476;5.700;2022-09-09T12:35:16;19.00;99.90
58582;DHT22;44361;51.476;5.700;2022-09-09T12:40:27;19.10;99.90
58582;DHT22;44361;51.476;5.700;2022-09-09T12:42:53;19.50;99.90
58582;DHT22;44361;51.476;5.700;2022-09-09T12:45:25;19.60;99.90
58582;DHT22;44361;51.476;5.700;2022-09-09T12:47:53;19.60;99.90
58582;DHT22;44361;51.476;5.700;2022-09-09T12:50:31;19.70;99.90
58582;DHT22;44361;51.476;5.700;2022-09-09T12:53:00;19.80;99.90
58582;DHT22;44361;51.476;5.700;2022-09-09T12:55:32;19.60;99.90
58582;DHT22;44361;51.476;5.700;2022-09-09T12:58:01;19.60;99.90
58582;DHT22;44361;51.476;5.700;2022-09-09T13:00:30;19.40;99.90
58582;DHT22;44361;51.476;5.700;2022-09-09T13:02:58;19.30;99.90
58582;DHT22;44361;51.476;5.700;2022-09-09T13:05:25;19.20;99.90
58582;DHT22;44361;51.476;5.700;2022-09-09T13:07:51;19.20;99.90
58582;DHT22;44361;51.476;5.700;2022-09-09T13:10:27;19.20;99.90
58582;DHT22;44361;51.476;5.700;2022-09-09T13:12:54;19.10;99.90
58582;DHT22;44361;51.476;5.700;2022-09-09T13:15:22;19.20;99.90
58582;DHT22;44361;51.476;5.700;2022-09-09T13:17:54;19.30;99.90
58582;DHT22;44361;51.476;5.700;2022-09-09T13:20:22;19.20;99.90
58582;DHT22;44361;51.476;5.700;2022-09-09T13:22:49;19.10;99.90
58582;DHT22;44361;51.476;5.700;2022-09-09T13:25:27;19.10;99.90
58582;DHT22;44361;51.476;5.700;2022-09-09T13:33:04;19.20;99.90
58582;DHT22;44361;51.476;5.700;2022-09-09T13:35:31;19.60;99.90
58582;DHT22;44361;51.476;5.700;2022-09-09T13:37:57;20.20;99.90
58582;DHT22;44361;51.476;5.700;2022-09-09T13:40:24;20.70;99.90
58582;DHT22;44361;51.476;5.700;2022-09-09T13:42:57;20.90;99.90
58582;DHT22;44361;51.476;5.700;2022-09-09T13:45:25;21.10;99.90
58582;DHT22;44361;51.476;5.700;2022-09-09T13:47:55;21.20;99.90
58582;DHT22;44361;51.476;5.700;2022-09-09T13:50:21;21.00;99.90
58582;DHT22;44361;51.476;5.700;2022-09-09T13:52:49;20.70;99.90
58582;DHT22;44361;51.476;5.700;2022-09-09T13:55:17;20.30;99.90
58582;DHT22;44361;51.476;5.700;2022-09-09T13:58:03;19.90;99.90
58582;DHT22;44361;51.476;5.700;2022-09-09T14:00:32;19.90;99.90
58582;DHT22;44361;51.476;5.700;2022-09-09T14:02:58;19.90;99.90
58582;DHT22;44361;51.476;5.700;2022-09-09T14:05:27;20.30;99.90
58582;DHT22;44361;51.476;5.700;2022-09-09T14:07:53;20.80;99.90
58582;DHT22;44361;51.476;5.700;2022-09-09T14:10:19;20.80;99.90
58582;DHT22;44361;51.476;5.700;2022-09-09T14:12:45;20.80;99.90
58582;DHT22;44361;51.476;5.700;2022-09-09T14:15:12;20.80;99.90
58582;DHT22;44361;51.476;5.700;2022-09-09T14:17:38;21.10;99.90
58582;DHT22;44361;51.476;5.700;2022-09-09T14:20:05;21.30;99.90
58582;DHT22;44361;51.476;5.700;2022-09-09T14:22:33;21.50;99.90
58582;DHT22;44361;51.476;5.700;2022-09-09T14:24:59;21.40;99.90
58582;DHT22;44361;51.476;5.700;2022-09-09T14:27:25;21.20;99.90
58582;DHT22;44361;51.476;5.700;2022-09-09T14:29:53;21.00;99.90
58582;DHT22;44361;51.476;5.700;2022-09-09T14:32:19;20.90;99.90
58582;DHT22;44361;51.476;5.700;2022-09-09T14:34:46;20.60;99.90
58582;DHT22;44361;51.476;5.700;2022-09-09T14:37:15;20.60;99.90
58582;DHT22;44361;51.476;5.700;2022-09-09T14:39:41;20.30;99.90
58582;DHT22;44361;51.476;5.700;2022-09-09T14:42:09;20.40;99.90
58582;DHT22;44361;51.476;5.700;2022-09-09T14:44:36;20.30;99.90
58582;DHT22;44361;51.476;5.700;2022-09-09T14:47:06;20.30;99.90
58582;DHT22;44361;51.476;5.700;2022-09-09T14:49:35;20.70;99.90
58582;DHT22;44361;51.476;5.700;2022-09-09T14:52:02;21.30;99.90
58582;DHT22;44361;51.476;5.700;2022-09-09T14:54:28;21.50;99.90
58582;DHT22;44361;51.476;5.700;2022-09-09T14:56:54;21.60;99.90
58582;DHT22;44361;51.476;5.700;2022-09-09T14:59:20;21.60;99.90
58582;DHT22;44361;51.476;5.700;2022-09-09T15:01:45;21.40;99.90
58582;DHT22;44361;51.476;5.700;2022-09-09T15:04:12;21.20;99.90
58582;DHT22;44361;51.476;5.700;2022-09-09T15:06:38;21.10;99.90
58582;DHT22;44361;51.476;5.700;2022-09-09T15:09:05;21.00;99.90
58582;DHT22;44361;51.476;5.700;2022-09-09T15:11:33;20.80;99.90
58582;DHT22;44361;51.476;5.700;2022-09-09T15:14:03;20.60;99.90
58582;DHT22;44361;51.476;5.700;2022-09-09T15:16:29;20.50;99.90
58582;DHT22;44361;51.476;5.700;2022-09-09T15:18:56;20.30;99.90
58582;DHT22;44361;51.476;5.700;2022-09-09T15:21:25;20.10;99.90
58582;DHT22;44361;51.476;5.700;2022-09-09T15:23:51;20.10;99.90
58582;DHT22;44361;51.476;5.700;2022-09-09T15:26:17;20.20;99.90
58582;DHT22;44361;51.476;5.700;2022-09-09T15:28:44;20.20;99.90
58582;DHT22;44361;51.476;5.700;2022-09-09T15:33:54;20.20;99.90
58582;DHT22;44361;51.476;5.700;2022-09-09T15:36:36;20.10;99.90
58582;DHT22;44361;51.476;5.700;2022-09-09T15:39:04;20.10;99.90
58582;DHT22;44361;51.476;5.700;2022-09-09T15:41:30;20.10;99.90
58582;DHT22;44361;51.476;5.700;2022-09-09T15:43:57;20.20;99.90
58582;DHT22;44361;51.476;5.700;2022-09-09T15:46:33;20.10;99.90
58582;DHT22;44361;51.476;5.700;2022-09-09T15:49:10;19.90;99.90
58582;DHT22;44361;51.476;5.700;2022-09-09T15:51:43;20.00;99.90
58582;DHT22;44361;51.476;5.700;2022-09-09T15:54:15;20.30;99.90
58582;DHT22;44361;51.476;5.700;2022-09-09T15:56:42;20.50;99.90
58582;DHT22;44361;51.476;5.700;2022-09-09T15:59:08;20.60;99.90
58582;DHT22;44361;51.476;5.700;2022-09-09T16:01:34;20.40;99.90
58582;DHT22;44361;51.476;5.700;2022-09-09T16:04:00;20.20;99.90
58582;DHT22;44361;51.476;5.700;2022-09-09T16:06:27;20.00;99.90
58582;DHT22;44361;51.476;5.700;2022-09-09T16:08:54;19.80;99.90
58582;DHT22;44361;51.476;5.700;2022-09-09T16:11:22;19.60;99.90
58582;DHT22;44361;51.476;5.700;2022-09-09T16:13:50;19.60;99.90
58582;DHT22;44361;51.476;5.700;2022-09-09T16:16:18;19.60;99.90
58582;DHT22;44361;51.476;5.700;2022-09-09T16:18:46;19.50;99.90
58582;DHT22;44361;51.476;5.700;2022-09-09T16:21:18;19.30;99.90
58582;DHT22;44361;51.476;5.700;2022-09-09T16:23:44;19.10;99.90
58582;DHT22;44361;51.476;5.700;2022-09-09T16:26:14;18.90;99.90
58582;DHT22;44361;51.476;5.700;2022-09-09T16:28:40;18.70;99.90
58582;DHT22;44361;51.476;5.700;2022-09-09T16:31:12;18.60;99.90
58582;DHT22;44361;51.476;5.700;2022-09-09T16:33:39;18.30;99.90
58582;DHT22;44361;51.476;5.700;2022-09-09T16:36:09;18.10;99.90
58582;DHT22;44361;51.476;5.700;2022-09-09T16:38:36;17.90;99.90
58582;DHT22;44361;51.476;5.700;2022-09-09T16:41:03;17.70;99.90
58582;DHT22;44361;51.476;5.700;2022-09-09T16:43:30;17.70;99.90
58582;DHT22;44361;51.476;5.700;2022-09-09T16:45:56;17.60;99.90
58582;DHT22;44361;51.476;5.700;2022-09-09T16:48:21;17.50;99.90
58582;DHT22;44361;51.476;5.700;2022-09-09T16:50:47;17.40;99.90
58582;DHT22;44361;51.476;5.700;2022-09-09T16:53:13;17.20;99.90
58582;DHT22;44361;51.476;5.700;2022-09-09T16:55:40;17.10;99.90
58582;DHT22;44361;51.476;5.700;2022-09-09T16:58:07;17.00;99.90
58582;DHT22;44361;51.476;5.700;2022-09-09T17:00:34;16.90;99.90
58582;DHT22;44361;51.476;5.700;2022-09-09T17:02:59;16.80;99.90
58582;DHT22;44361;51.476;5.700;2022-09-09T17:05:25;16.50;99.90
58582;DHT22;44361;51.476;5.700;2022-09-09T17:07:50;15.50;99.90
58582;DHT22;44361;51.476;5.700;2022-09-09T17:10:17;15.00;99.90
58582;DHT22;44361;51.476;5.700;2022-09-09T17:12:42;15.00;99.90
58582;DHT22;44361;51.476;5.700;2022-09-09T17:15:08;15.10;99.90
58582;DHT22;44361;51.476;5.700;2022-09-09T17:17:34;15.10;99.90
58582;DHT22;44361;51.476;5.700;2022-09-09T17:20:00;15.20;99.90
58582;DHT22;44361;51.476;5.700;2022-09-09T17:22:27;15.20;99.90
58582;DHT22;44361;51.476;5.700;2022-09-09T17:24:52;15.10;99.90
58582;DHT22;44361;51.476;5.700;2022-09-09T17:27:18;15.10;99.90
58582;DHT22;44361;51.476;5.700;2022-09-09T17:29:44;15.10;99.90
58582;DHT22;44361;51.476;5.700;2022-09-09T17:32:09;15.10;99.90
58582;DHT22;44361;51.476;5.700;2022-09-09T17:34:36;15.10;99.90